sensor_id;sensor_type;location;lat;lon;timestamp;temperature;humidity
15617;DHT22;7908;51.688;7.130;2023-03-14T00:00:41;11.30;99.90
15617;DHT22;7908;51.688;7.130;2023-03-14T00:03:10;11.30;99.90
15617;DHT22;7908;51.688;7.130;2023-03-14T00:05:39;11.40;99.90
15617;DHT22;7908;51.688;7.130;2023-03-14T00:08:07;11.40;99.90
15617;DHT22;7908;51.688;7.130;2023-03-14T00:10:38;11.40;99.90
15617;DHT22;7908;51.688;7.130;2023-03-14T00:13:07;11.40;99.90
15617;DHT22;7908;51.688;7.130;2023-03-14T00:15:35;11.40;99.90
15617;DHT22;7908;51.688;7.130;2023-03-14T00:18:04;11.30;99.90
15617;DHT22;7908;51.688;7.130;2023-03-14T00:20:33;11.30;99.90
15617;DHT22;7908;51.688;7.130;2023-03-14T00:23:01;11.30;99.90
15617;DHT22;7908;51.688;7.130;2023-03-14T00:25:30;11.30;99.90
15617;DHT22;7908;51.688;7.130;2023-03-14T00:28:00;11.20;99.90
15617;DHT22;7908;51.688;7.130;2023-03-14T00:30:29;11.20;99.90
15617;DHT22;7908;51.688;7.130;2023-03-14T00:32:57;11.20;99.90
15617;DHT22;7908;51.688;7.130;2023-03-14T00:35:26;11.10;99.90
15617;DHT22;7908;51.688;7.130;2023-03-14T00:37:54;11.10;99.90
15617;DHT22;7908;51.688;7.130;2023-03-14T00:40:23;11.00;99.90
15617;DHT22;7908;51.688;7.130;2023-03-14T00:42:52;11.00;99.90
15617;DHT22;7908;51.688;7.130;2023-03-14T00:45:22;11.00;99.90
15617;DHT22;7908;51.688;7.130;2023-03-14T00:47:51;11.00;99.90
15617;DHT22;7908;51.688;7.130;2023-03-14T00:50:19;11.00;99.90
15617;DHT22;7908;51.688;7.130;2023-03-14T00:52:48;11.00;99.90
15617;DHT22;7908;51.688;7.130;2023-03-14T00:55:17;11.10;99.90
15617;DHT22;7908;51.688;7.130;2023-03-14T00:57:45;11.10;99.90
15617;DHT22;7908;51.688;7.130;2023-03-14T01:00:14;11.10;99.90
15617;DHT22;7908;51.688;7.130;2023-03-14T01:02:44;11.10;99.90
15617;DHT22;7908;51.688;7.130;2023-03-14T01:05:13;11.20;99.90
15617;DHT22;7908;51.688;7.130;2023-03-14T01:07:42;11.30;99.90
15617;DHT22;7908;51.688;7.130;2023-03-14T01:10:11;11.30;99.90
15617;DHT22;7908;51.688;7.130;2023-03-14T01:12:39;11.30;99.90
15617;DHT22;7908;51.688;7.130;2023-03-14T01:15:09;11.20;99.90
15617;DHT22;7908;51.688;7.130;2023-03-14T01:17:38;11.00;99.90
15617;DHT22;7908;51.688;7.130;2023-03-14T01:20:11;10.80;99.90
15617;DHT22;7908;51.688;7.130;2023-03-14T01:22:41;10.60;99.90
15617;DHT22;7908;51.688;7.130;2023-03-14T01:25:13;10.40;99.90
15617;DHT22;7908;51.688;7.130;2023-03-14T01:27:42;10.20;99.90
15617;DHT22;7908;51.688;7.130;2023-03-14T01:30:12;10.10;99.90
15617;DHT22;7908;51.688;7.130;2023-03-14T01:32:41;10.10;99.90
15617;DHT22;7908;51.688;7.130;2023-03-14T01:35:11;10.00;99.90
15617;DHT22;7908;51.688;7.130;2023-03-14T01:37:40;10.00;99.90
15617;DHT22;7908;51.688;7.130;2023-03-14T01:40:10;9.90;99.90
15617;DHT22;7908;51.688;7.130;2023-03-14T01:42:45;9.90;99.90
15617;DHT22;7908;51.688;7.130;2023-03-14T01:48:19;9.80;99.90
15617;DHT22;7908;51.688;7.130;2023-03-14T01:50:49;9.70;99.90
15617;DHT22;7908;51.688;7.130;2023-03-14T01:53:18;9.70;99.90
15617;DHT22;7908;51.688;7.130;2023-03-14T01:55:48;9.70;99.90
15617;DHT22;7908;51.688;7.130;2023-03-14T01:58:19;9.70;99.90
15617;DHT22;7908;51.688;7.130;2023-03-14T02:00:48;9.70;99.90
15617;DHT22;7908;51.688;7.130;2023-03-14T02:03:17;9.60;99.90
15617;DHT22;7908;51.688;7.130;2023-03-14T02:05:49;9.60;99.90
15617;DHT22;7908;51.688;7.130;2023-03-14T02:08:20;9.60;99.90
15617;DHT22;7908;51.688;7.130;2023-03-14T02:10:49;9.60;99.90
15617;DHT22;7908;51.688;7.130;2023-03-14T02:13:20;9.50;99.90
15617;DHT22;7908;51.688;7.130;2023-03-14T02:15:49;9.50;99.90
15617;DHT22;7908;51.688;7.130;2023-03-14T02:18:19;9.50;99.90
15617;DHT22;7908;51.688;7.130;2023-03-14T02:20:55;9.40;99.90
15617;DHT22;7908;51.688;7.130;2023-03-14T02:23:32;9.40;99.90
15617;DHT22;7908;51.688;7.130;2023-03-14T02:26:09;9.40;99.90
15617;DHT22;7908;51.688;7.130;2023-03-14T02:28:40;9.40;99.90
15617;DHT22;7908;51.688;7.130;2023-03-14T02:31:09;9.30;99.90
15617;DHT22;7908;51.688;7.130;2023-03-14T02:33:38;9.40;99.90
15617;DHT22;7908;51.688;7.130;2023-03-14T02:36:10;9.40;99.90
15617;DHT22;7908;51.688;7.130;2023-03-14T02:38:45;9.40;99.90
15617;DHT22;7908;51.688;7.130;2023-03-14T02:41:15;9.30;99.90
15617;DHT22;7908;51.688;7.130;2023-03-14T02:43:45;9.40;99.90
15617;DHT22;7908;51.688;7.130;2023-03-14T02:46:16;9.40;99.90
15617;DHT22;7908;51.688;7.130;2023-03-14T02:48:49;9.40;99.90
15617;DHT22;7908;51.688;7.130;2023-03-14T02:51:20;9.40;99.90
15617;DHT22;7908;51.688;7.130;2023-03-14T02:53:49;9.40;99.90
15617;DHT22;7908;51.688;7.130;2023-03-14T02:56:18;9.40;99.90
15617;DHT22;7908;51.688;7.130;2023-03-14T02:58:48;9.40;99.90
15617;DHT22;7908;51.688;7.130;2023-03-14T03:01:16;9.40;99.90
15617;DHT22;7908;51.688;7.130;2023-03-14T03:03:45;9.40;99.90
15617;DHT22;7908;51.688;7.130;2023-03-14T03:06:14;9.50;99.90
15617;DHT22;7908;51.688;7.130;2023-03-14T03:08:43;9.40;99.90
15617;DHT22;7908;51.688;7.130;2023-03-14T03:11:11;9.40;99.90
15617;DHT22;7908;51.688;7.130;2023-03-14T03:13:41;9.40;99.90
15617;DHT22;7908;51.688;7.130;2023-03-14T03:16:11;9.40;99.90
15617;DHT22;7908;51.688;7.130;2023-03-14T03:18:40;9.40;99.90
15617;DHT22;7908;51.688;7.130;2023-03-14T03:21:09;9.40;99.90
15617;DHT22;7908;51.688;7.130;2023-03-14T03:23:38;9.40;99.90
15617;DHT22;7908;51.688;7.130;2023-03-14T03:26:08;9.40;99.90
15617;DHT22;7908;51.688;7.130;2023-03-14T03:28:37;9.40;99.90
15617;DHT22;7908;51.688;7.130;2023-03-14T03:31:11;9.40;99.90
15617;DHT22;7908;51.688;7.130;2023-03-14T03:33:39;9.40;99.90
15617;DHT22;7908;51.688;7.130;2023-03-14T03:36:09;9.40;99.90
15617;DHT22;7908;51.688;7.130;2023-03-14T03:38:38;9.40;99.90
15617;DHT22;7908;51.688;7.130;2023-03-14T03:41:08;9.30;99.90
15617;DHT22;7908;51.688;7.130;2023-03-14T03:43:36;9.30;99.90
15617;DHT22;7908;51.688;7.130;2023-03-14T03:46:06;9.30;99.90
15617;DHT22;7908;51.688;7.130;2023-03-14T03:48:36;9.30;99.90
15617;DHT22;7908;51.688;7.130;2023-03-14T03:51:05;9.30;99.90
15617;DHT22;7908;51.688;7.130;2023-03-14T03:53:34;9.30;99.90
15617;DHT22;7908;51.688;7.130;2023-03-14T03:56:03;9.30;99.90
15617;DHT22;7908;51.688;7.130;2023-03-14T03:58:31;9.40;99.90
15617;DHT22;7908;51.688;7.130;2023-03-14T04:01:00;9.40;99.90
15617;DHT22;7908;51.688;7.130;2023-03-14T04:03:29;9.40;99.90
15617;DHT22;7908;51.688;7.130;2023-03-14T04:06:01;9.40;99.90
15617;DHT22;7908;51.688;7.130;2023-03-14T04:08:30;9.40;99.90
15617;DHT22;7908;51.688;7.130;2023-03-14T04:11:00;9.50;99.90
15617;DHT22;7908;51.688;7.130;2023-03-14T04:13:29;9.50;99.90
15617;DHT22;7908;51.688;7.130;2023-03-14T04:15:58;9.50;99.90
15617;DHT22;7908;51.688;7.130;2023-03-14T04:18:26;9.50;99.90
15617;DHT22;7908;51.688;7.130;2023-03-14T04:20:59;9.50;99.90
15617;DHT22;7908;51.688;7.130;2023-03-14T04:23:28;9.50;99.90
15617;DHT22;7908;51.688;7.130;2023-03-14T04:25:56;9.50;99.90
15617;DHT22;7908;51.688;7.130;2023-03-14T04:28:25;9.60;99.90
15617;DHT22;7908;51.688;7.130;2023-03-14T04:30:54;9.60;99.90
15617;DHT22;7908;51.688;7.130;2023-03-14T04:33:23;9.50;99.90
15617;DHT22;7908;51.688;7.130;2023-03-14T04:35:54;9.60;99.90
15617;DHT22;7908;51.688;7.130;2023-03-14T04:38:24;9.60;99.90
15617;DHT22;7908;51.688;7.130;2023-03-14T04:40:52;9.60;99.90
15617;DHT22;7908;51.688;7.130;2023-03-14T04:43:21;9.50;99.90
15617;DHT22;7908;51.688;7.130;2023-03-14T04:45:50;9.50;99.90
15617;DHT22;7908;51.688;7.130;2023-03-14T04:48:18;9.50;99.90
15617;DHT22;7908;51.688;7.130;2023-03-14T04:50:47;9.50;99.90
15617;DHT22;7908;51.688;7.130;2023-03-14T04:53:17;9.50;99.90
15617;DHT22;7908;51.688;7.130;2023-03-14T04:55:49;9.50;99.90
15617;DHT22;7908;51.688;7.130;2023-03-14T04:58:18;9.40;99.90
15617;DHT22;7908;51.688;7.130;2023-03-14T05:00:47;9.50;99.90
15617;DHT22;7908;51.688;7.130;2023-03-14T05:03:17;9.50;99.90
15617;DHT22;7908;51.688;7.130;2023-03-14T05:05:46;9.40;99.90
15617;DHT22;7908;51.688;7.130;2023-03-14T05:08:15;9.40;99.90
15617;DHT22;7908;51.688;7.130;2023-03-14T05:10:43;9.40;99.90
15617;DHT22;7908;51.688;7.130;2023-03-14T05:13:13;9.40;99.90
15617;DHT22;7908;51.688;7.130;2023-03-14T05:15:42;9.40;99.90
15617;DHT22;7908;51.688;7.130;2023-03-14T05:18:11;9.40;99.90
15617;DHT22;7908;51.688;7.130;2023-03-14T05:20:39;9.30;99.90
15617;DHT22;7908;51.688;7.130;2023-03-14T05:23:10;9.20;99.90
15617;DHT22;7908;51.688;7.130;2023-03-14T05:25:38;9.20;99.90
15617;DHT22;7908;51.688;7.130;2023-03-14T05:28:07;9.10;99.90
15617;DHT22;7908;51.688;7.130;2023-03-14T05:30:37;9.10;99.90
15617;DHT22;7908;51.688;7.130;2023-03-14T05:33:05;9.00;99.90
15617;DHT22;7908;51.688;7.130;2023-03-14T05:35:34;9.00;99.90
15617;DHT22;7908;51.688;7.130;2023-03-14T05:38:03;8.90;99.90
15617;DHT22;7908;51.688;7.130;2023-03-14T05:40:31;8.90;99.90
15617;DHT22;7908;51.688;7.130;2023-03-14T05:42:59;8.90;99.90
15617;DHT22;7908;51.688;7.130;2023-03-14T05:45:28;8.90;99.90
15617;DHT22;7908;51.688;7.130;2023-03-14T05:48:01;8.90;99.90
15617;DHT22;7908;51.688;7.130;2023-03-14T05:50:29;8.80;99.90
15617;DHT22;7908;51.688;7.130;2023-03-14T05:52:58;8.80;99.90
15617;DHT22;7908;51.688;7.130;2023-03-14T05:55:27;8.70;99.90
15617;DHT22;7908;51.688;7.130;2023-03-14T05:57:56;8.70;99.90
15617;DHT22;7908;51.688;7.130;2023-03-14T06:00:24;8.70;99.90
15617;DHT22;7908;51.688;7.130;2023-03-14T06:02:53;8.70;99.90
15617;DHT22;7908;51.688;7.130;2023-03-14T06:05:23;8.70;99.90
15617;DHT22;7908;51.688;7.130;2023-03-14T06:07:52;8.70;99.90
15617;DHT22;7908;51.688;7.130;2023-03-14T06:10:20;8.70;99.90
15617;DHT22;7908;51.688;7.130;2023-03-14T06:12:49;8.70;99.90
15617;DHT22;7908;51.688;7.130;2023-03-14T06:15:18;8.70;99.90
15617;DHT22;7908;51.688;7.130;2023-03-14T06:17:46;8.70;99.90
15617;DHT22;7908;51.688;7.130;2023-03-14T06:20:15;8.80;99.90
15617;DHT22;7908;51.688;7.130;2023-03-14T06:22:45;8.80;99.90
15617;DHT22;7908;51.688;7.130;2023-03-14T06:25:14;8.80;99.90
15617;DHT22;7908;51.688;7.130;2023-03-14T06:27:43;8.80;99.90
15617;DHT22;7908;51.688;7.130;2023-03-14T06:30:12;8.80;99.90
15617;DHT22;7908;51.688;7.130;2023-03-14T06:32:40;8.80;99.90
15617;DHT22;7908;51.688;7.130;2023-03-14T06:35:09;8.80;99.90
15617;DHT22;7908;51.688;7.130;2023-03-14T06:37:38;8.80;99.90
15617;DHT22;7908;51.688;7.130;2023-03-14T06:40:10;8.80;99.90
15617;DHT22;7908;51.688;7.130;2023-03-14T06:42:39;8.80;99.90
15617;DHT22;7908;51.688;7.130;2023-03-14T06:45:09;8.80;99.90
15617;DHT22;7908;51.688;7.130;2023-03-14T06:47:37;8.80;99.90
15617;DHT22;7908;51.688;7.130;2023-03-14T06:50:07;8.90;99.90
15617;DHT22;7908;51.688;7.130;2023-03-14T06:52:36;8.90;99.90
15617;DHT22;7908;51.688;7.130;2023-03-14T06:55:10;8.90;99.90
15617;DHT22;7908;51.688;7.130;2023-03-14T06:57:38;8.90;99.90
15617;DHT22;7908;51.688;7.130;2023-03-14T07:00:08;8.90;99.90
15617;DHT22;7908;51.688;7.130;2023-03-14T07:02:37;8.90;99.90
15617;DHT22;7908;51.688;7.130;2023-03-14T07:05:10;8.90;99.90
15617;DHT22;7908;51.688;7.130;2023-03-14T07:07:38;8.90;99.90
15617;DHT22;7908;51.688;7.130;2023-03-14T07:10:08;9.00;99.90
15617;DHT22;7908;51.688;7.130;2023-03-14T07:12:38;9.00;99.90
15617;DHT22;7908;51.688;7.130;2023-03-14T07:15:07;9.00;99.90
15617;DHT22;7908;51.688;7.130;2023-03-14T07:17:45;9.00;99.90
15617;DHT22;7908;51.688;7.130;2023-03-14T07:20:15;9.00;99.90
15617;DHT22;7908;51.688;7.130;2023-03-14T07:22:47;9.10;99.90
15617;DHT22;7908;51.688;7.130;2023-03-14T07:25:16;9.10;99.90
15617;DHT22;7908;51.688;7.130;2023-03-14T07:27:47;9.20;99.90
15617;DHT22;7908;51.688;7.130;2023-03-14T07:30:16;9.20;99.90
15617;DHT22;7908;51.688;7.130;2023-03-14T07:32:45;9.30;99.90
15617;DHT22;7908;51.688;7.130;2023-03-14T07:35:14;9.30;99.90
15617;DHT22;7908;51.688;7.130;2023-03-14T07:37:43;9.30;99.90
15617;DHT22;7908;51.688;7.130;2023-03-14T07:40:12;9.40;99.90
15617;DHT22;7908;51.688;7.130;2023-03-14T07:42:42;9.40;99.90
15617;DHT22;7908;51.688;7.130;2023-03-14T07:45:12;9.40;99.90
15617;DHT22;7908;51.688;7.130;2023-03-14T07:47:41;9.40;99.90
15617;DHT22;7908;51.688;7.130;2023-03-14T07:50:10;9.40;99.90
15617;DHT22;7908;51.688;7.130;2023-03-14T07:52:39;9.40;99.90
15617;DHT22;7908;51.688;7.130;2023-03-14T07:55:08;9.40;99.90
15617;DHT22;7908;51.688;7.130;2023-03-14T07:57:40;9.40;99.90
15617;DHT22;7908;51.688;7.130;2023-03-14T08:00:10;9.50;99.90
15617;DHT22;7908;51.688;7.130;2023-03-14T08:02:43;9.50;99.90
15617;DHT22;7908;51.688;7.130;2023-03-14T08:05:12;9.60;99.90
15617;DHT22;7908;51.688;7.130;2023-03-14T08:07:41;9.60;99.90
15617;DHT22;7908;51.688;7.130;2023-03-14T08:10:10;9.60;99.90
15617;DHT22;7908;51.688;7.130;2023-03-14T08:12:40;9.60;99.90
15617;DHT22;7908;51.688;7.130;2023-03-14T08:15:09;9.70;99.90
15617;DHT22;7908;51.688;7.130;2023-03-14T08:17:38;9.70;99.90
15617;DHT22;7908;51.688;7.130;2023-03-14T08:20:09;9.70;99.90
15617;DHT22;7908;51.688;7.130;2023-03-14T08:22:40;9.70;99.90
15617;DHT22;7908;51.688;7.130;2023-03-14T08:25:09;9.70;99.90
15617;DHT22;7908;51.688;7.130;2023-03-14T08:27:37;9.70;99.90
15617;DHT22;7908;51.688;7.130;2023-03-14T08:30:11;9.70;99.90
15617;DHT22;7908;51.688;7.130;2023-03-14T08:32:39;9.70;99.90
15617;DHT22;7908;51.688;7.130;2023-03-14T08:35:10;9.70;99.90
15617;DHT22;7908;51.688;7.130;2023-03-14T08:37:39;9.90;99.90
15617;DHT22;7908;51.688;7.130;2023-03-14T08:40:10;10.00;99.90
15617;DHT22;7908;51.688;7.130;2023-03-14T08:42:39;10.00;99.90
15617;DHT22;7908;51.688;7.130;2023-03-14T08:45:11;10.00;99.90
15617;DHT22;7908;51.688;7.130;2023-03-14T08:47:40;10.10;99.90
15617;DHT22;7908;51.688;7.130;2023-03-14T08:50:11;10.10;99.90
15617;DHT22;7908;51.688;7.130;2023-03-14T08:52:42;10.10;99.90
15617;DHT22;7908;51.688;7.130;2023-03-14T08:55:11;10.20;99.90
15617;DHT22;7908;51.688;7.130;2023-03-14T08:57:40;10.30;99.90
15617;DHT22;7908;51.688;7.130;2023-03-14T09:00:10;10.30;99.90
15617;DHT22;7908;51.688;7.130;2023-03-14T09:02:41;10.40;99.90
15617;DHT22;7908;51.688;7.130;2023-03-14T09:05:12;10.40;99.90
15617;DHT22;7908;51.688;7.130;2023-03-14T09:07:41;10.40;99.90
15617;DHT22;7908;51.688;7.130;2023-03-14T09:10:10;10.40;99.90
15617;DHT22;7908;51.688;7.130;2023-03-14T09:12:39;10.40;99.90
15617;DHT22;7908;51.688;7.130;2023-03-14T09:15:09;10.40;99.90
15617;DHT22;7908;51.688;7.130;2023-03-14T09:17:37;10.40;99.90
15617;DHT22;7908;51.688;7.130;2023-03-14T09:20:07;10.40;99.90
15617;DHT22;7908;51.688;7.130;2023-03-14T09:22:38;10.40;99.90
15617;DHT22;7908;51.688;7.130;2023-03-14T09:25:07;10.20;99.90
15617;DHT22;7908;51.688;7.130;2023-03-14T09:27:36;9.90;99.90
15617;DHT22;7908;51.688;7.130;2023-03-14T09:30:06;9.60;99.90
15617;DHT22;7908;51.688;7.130;2023-03-14T09:32:35;9.40;99.90
15617;DHT22;7908;51.688;7.130;2023-03-14T09:35:05;9.20;99.90
15617;DHT22;7908;51.688;7.130;2023-03-14T09:37:34;9.10;99.90
15617;DHT22;7908;51.688;7.130;2023-03-14T09:40:09;9.10;99.90
15617;DHT22;7908;51.688;7.130;2023-03-14T09:42:40;9.00;99.90
15617;DHT22;7908;51.688;7.130;2023-03-14T09:45:13;9.00;99.90
15617;DHT22;7908;51.688;7.130;2023-03-14T09:47:43;8.90;99.90
15617;DHT22;7908;51.688;7.130;2023-03-14T09:50:27;8.90;99.90
15617;DHT22;7908;51.688;7.130;2023-03-14T09:53:03;8.90;99.90
15617;DHT22;7908;51.688;7.130;2023-03-14T09:55:34;8.80;99.90
15617;DHT22;7908;51.688;7.130;2023-03-14T09:58:08;8.70;99.90
15617;DHT22;7908;51.688;7.130;2023-03-14T10:00:38;8.50;99.90
15617;DHT22;7908;51.688;7.130;2023-03-14T10:03:22;8.30;99.90
15617;DHT22;7908;51.688;7.130;2023-03-14T10:05:52;8.10;99.90
15617;DHT22;7908;51.688;7.130;2023-03-14T10:08:22;8.00;99.90
15617;DHT22;7908;51.688;7.130;2023-03-14T10:10:52;8.00;99.90
15617;DHT22;7908;51.688;7.130;2023-03-14T10:13:23;8.10;99.90
15617;DHT22;7908;51.688;7.130;2023-03-14T10:15:54;8.00;99.90
15617;DHT22;7908;51.688;7.130;2023-03-14T10:18:24;7.90;99.90
15617;DHT22;7908;51.688;7.130;2023-03-14T10:21:06;7.90;99.90
15617;DHT22;7908;51.688;7.130;2023-03-14T10:23:36;7.80;99.90
15617;DHT22;7908;51.688;7.130;2023-03-14T10:26:14;7.70;99.90
15617;DHT22;7908;51.688;7.130;2023-03-14T10:28:45;7.60;99.90
15617;DHT22;7908;51.688;7.130;2023-03-14T10:31:15;7.50;99.90
15617;DHT22;7908;51.688;7.130;2023-03-14T10:33:57;7.50;99.90
15617;DHT22;7908;51.688;7.130;2023-03-14T10:36:28;7.50;99.90
15617;DHT22;7908;51.688;7.130;2023-03-14T10:39:16;7.40;99.90
15617;DHT22;7908;51.688;7.130;2023-03-14T10:41:53;7.30;99.90
15617;DHT22;7908;51.688;7.130;2023-03-14T10:44:26;7.10;99.90
15617;DHT22;7908;51.688;7.130;2023-03-14T10:47:00;7.00;99.90
15617;DHT22;7908;51.688;7.130;2023-03-14T10:49:32;6.90;99.90
15617;DHT22;7908;51.688;7.130;2023-03-14T10:52:02;6.70;99.90
15617;DHT22;7908;51.688;7.130;2023-03-14T10:54:47;6.80;99.90
15617;DHT22;7908;51.688;7.130;2023-03-14T10:57:19;6.70;99.90
15617;DHT22;7908;51.688;7.130;2023-03-14T10:59:49;6.60;99.90
15617;DHT22;7908;51.688;7.130;2023-03-14T11:02:39;6.40;99.90
15617;DHT22;7908;51.688;7.130;2023-03-14T11:05:21;6.40;99.90
15617;DHT22;7908;51.688;7.130;2023-03-14T11:07:55;6.30;99.90
15617;DHT22;7908;51.688;7.130;2023-03-14T11:10:31;6.30;99.90
15617;DHT22;7908;51.688;7.130;2023-03-14T11:13:15;6.20;99.90
15617;DHT22;7908;51.688;7.130;2023-03-14T11:15:55;6.30;99.90
15617;DHT22;7908;51.688;7.130;2023-03-14T11:21:53;6.50;99.90
15617;DHT22;7908;51.688;7.130;2023-03-14T11:24:37;6.40;99.90
15617;DHT22;7908;51.688;7.130;2023-03-14T11:27:17;6.40;99.90
15617;DHT22;7908;51.688;7.130;2023-03-14T11:29:54;6.30;99.90
15617;DHT22;7908;51.688;7.130;2023-03-14T11:32:39;6.20;99.90
15617;DHT22;7908;51.688;7.130;2023-03-14T11:35:17;6.20;99.90
15617;DHT22;7908;51.688;7.130;2023-03-14T11:37:49;6.40;99.90
15617;DHT22;7908;51.688;7.130;2023-03-14T11:40:21;6.40;99.90
15617;DHT22;7908;51.688;7.130;2023-03-14T11:42:58;6.40;99.90
15617;DHT22;7908;51.688;7.130;2023-03-14T11:45:34;6.40;99.90
15617;DHT22;7908;51.688;7.130;2023-03-14T11:48:22;6.50;99.90
15617;DHT22;7908;51.688;7.130;2023-03-14T11:50:57;6.20;99.90
15617;DHT22;7908;51.688;7.130;2023-03-14T11:53:39;6.10;99.90
15617;DHT22;7908;51.688;7.130;2023-03-14T11:56:19;6.00;99.90
15617;DHT22;7908;51.688;7.130;2023-03-14T11:58:55;6.10;99.90
15617;DHT22;7908;51.688;7.130;2023-03-14T12:01:36;6.10;99.90
15617;DHT22;7908;51.688;7.130;2023-03-14T12:04:13;6.10;99.90
15617;DHT22;7908;51.688;7.130;2023-03-14T12:06:47;6.20;99.90
15617;DHT22;7908;51.688;7.130;2023-03-14T12:09:18;6.30;99.90
15617;DHT22;7908;51.688;7.130;2023-03-14T12:11:52;6.40;99.90
15617;DHT22;7908;51.688;7.130;2023-03-14T12:14:26;6.50;99.90
15617;DHT22;7908;51.688;7.130;2023-03-14T12:16:58;6.60;99.90
15617;DHT22;7908;51.688;7.130;2023-03-14T12:19:34;6.70;99.90
15617;DHT22;7908;51.688;7.130;2023-03-14T12:22:27;6.90;99.90
15617;DHT22;7908;51.688;7.130;2023-03-14T12:25:00;7.10;99.90
15617;DHT22;7908;51.688;7.130;2023-03-14T12:28:12;7.10;99.90
15617;DHT22;7908;51.688;7.130;2023-03-14T12:30:45;7.10;99.90
15617;DHT22;7908;51.688;7.130;2023-03-14T12:33:31;6.90;99.90
15617;DHT22;7908;51.688;7.130;2023-03-14T12:36:12;6.70;99.90
15617;DHT22;7908;51.688;7.130;2023-03-14T12:39:05;6.40;99.90
15617;DHT22;7908;51.688;7.130;2023-03-14T12:41:42;6.30;99.90
15617;DHT22;7908;51.688;7.130;2023-03-14T12:44:40;6.10;99.90
15617;DHT22;7908;51.688;7.130;2023-03-14T12:50:19;6.20;99.90
15617;DHT22;7908;51.688;7.130;2023-03-14T12:55:44;6.30;99.90
15617;DHT22;7908;51.688;7.130;2023-03-14T12:58:19;6.30;99.90
15617;DHT22;7908;51.688;7.130;2023-03-14T13:00:54;6.20;99.90
15617;DHT22;7908;51.688;7.130;2023-03-14T13:03:26;6.10;99.90
15617;DHT22;7908;51.688;7.130;2023-03-14T13:06:00;6.10;99.90
15617;DHT22;7908;51.688;7.130;2023-03-14T13:08:36;6.00;99.90
15617;DHT22;7908;51.688;7.130;2023-03-14T13:11:10;6.00;99.90
15617;DHT22;7908;51.688;7.130;2023-03-14T13:13:45;5.90;99.90
15617;DHT22;7908;51.688;7.130;2023-03-14T13:16:19;5.90;99.90
15617;DHT22;7908;51.688;7.130;2023-03-14T13:18:58;5.80;99.90
15617;DHT22;7908;51.688;7.130;2023-03-14T13:21:37;5.70;99.90
15617;DHT22;7908;51.688;7.130;2023-03-14T13:24:20;5.70;99.90
15617;DHT22;7908;51.688;7.130;2023-03-14T13:26:52;5.80;99.90
15617;DHT22;7908;51.688;7.130;2023-03-14T13:29:24;5.90;99.90
15617;DHT22;7908;51.688;7.130;2023-03-14T13:31:55;6.10;99.90
15617;DHT22;7908;51.688;7.130;2023-03-14T13:34:26;6.20;99.90
15617;DHT22;7908;51.688;7.130;2023-03-14T13:36:58;6.30;99.90
15617;DHT22;7908;51.688;7.130;2023-03-14T13:39:28;6.40;99.90
15617;DHT22;7908;51.688;7.130;2023-03-14T13:41:59;6.40;99.90
15617;DHT22;7908;51.688;7.130;2023-03-14T13:44:31;6.50;99.90
15617;DHT22;7908;51.688;7.130;2023-03-14T13:47:03;6.60;99.90
15617;DHT22;7908;51.688;7.130;2023-03-14T13:49:33;6.60;99.90
15617;DHT22;7908;51.688;7.130;2023-03-14T13:52:27;6.70;99.90
15617;DHT22;7908;51.688;7.130;2023-03-14T13:55:00;6.70;99.90
15617;DHT22;7908;51.688;7.130;2023-03-14T13:57:46;6.70;99.90
15617;DHT22;7908;51.688;7.130;2023-03-14T14:00:20;6.80;99.90
15617;DHT22;7908;51.688;7.130;2023-03-14T14:02:51;6.70;99.90
15617;DHT22;7908;51.688;7.130;2023-03-14T14:05:22;6.70;99.90
15617;DHT22;7908;51.688;7.130;2023-03-14T14:07:55;6.70;99.90
15617;DHT22;7908;51.688;7.130;2023-03-14T14:10:26;6.60;99.90
15617;DHT22;7908;51.688;7.130;2023-03-14T14:13:00;6.40;99.90
15617;DHT22;7908;51.688;7.130;2023-03-14T14:15:33;6.30;99.90
15617;DHT22;7908;51.688;7.130;2023-03-14T14:18:04;6.20;99.90
15617;DHT22;7908;51.688;7.130;2023-03-14T14:20:37;6.20;99.90
15617;DHT22;7908;51.688;7.130;2023-03-14T14:23:11;6.20;99.90
15617;DHT22;7908;51.688;7.130;2023-03-14T14:25:41;6.20;99.90
15617;DHT22;7908;51.688;7.130;2023-03-14T14:28:17;6.20;99.90
15617;DHT22;7908;51.688;7.130;2023-03-14T14:30:46;6.10;99.90
15617;DHT22;7908;51.688;7.130;2023-03-14T14:33:20;6.10;99.90
15617;DHT22;7908;51.688;7.130;2023-03-14T14:35:52;6.10;99.90
15617;DHT22;7908;51.688;7.130;2023-03-14T14:38:24;6.00;99.90
15617;DHT22;7908;51.688;7.130;2023-03-14T14:40:58;6.00;99.90
15617;DHT22;7908;51.688;7.130;2023-03-14T14:43:36;6.10;99.90
15617;DHT22;7908;51.688;7.130;2023-03-14T14:46:08;6.20;99.90
15617;DHT22;7908;51.688;7.130;2023-03-14T14:48:39;6.20;99.90
15617;DHT22;7908;51.688;7.130;2023-03-14T14:51:09;6.30;99.90
15617;DHT22;7908;51.688;7.130;2023-03-14T14:53:40;6.30;99.90
15617;DHT22;7908;51.688;7.130;2023-03-14T14:56:16;6.30;99.90
15617;DHT22;7908;51.688;7.130;2023-03-14T14:58:47;6.30;99.90
15617;DHT22;7908;51.688;7.130;2023-03-14T15:01:18;6.20;99.90
15617;DHT22;7908;51.688;7.130;2023-03-14T15:03:51;6.10;99.90
15617;DHT22;7908;51.688;7.130;2023-03-14T15:06:21;6.00;99.90
15617;DHT22;7908;51.688;7.130;2023-03-14T15:08:53;5.80;99.90
15617;DHT22;7908;51.688;7.130;2023-03-14T15:11:24;5.80;99.90
15617;DHT22;7908;51.688;7.130;2023-03-14T15:13:54;5.80;99.90
15617;DHT22;7908;51.688;7.130;2023-03-14T15:16:26;5.70;99.90
15617;DHT22;7908;51.688;7.130;2023-03-14T15:18:57;5.60;99.90
15617;DHT22;7908;51.688;7.130;2023-03-14T15:21:32;5.60;99.90
15617;DHT22;7908;51.688;7.130;2023-03-14T15:24:04;5.60;99.90
15617;DHT22;7908;51.688;7.130;2023-03-14T15:26:33;5.60;99.90
15617;DHT22;7908;51.688;7.130;2023-03-14T15:29:02;5.60;99.90
15617;DHT22;7908;51.688;7.130;2023-03-14T15:31:35;5.60;99.90
15617;DHT22;7908;51.688;7.130;2023-03-14T15:34:05;5.70;99.90
15617;DHT22;7908;51.688;7.130;2023-03-14T15:36:37;5.70;99.90
15617;DHT22;7908;51.688;7.130;2023-03-14T15:39:10;5.90;99.90
15617;DHT22;7908;51.688;7.130;2023-03-14T15:41:41;6.00;99.90
15617;DHT22;7908;51.688;7.130;2023-03-14T15:44:10;6.00;99.90
15617;DHT22;7908;51.688;7.130;2023-03-14T15:46:39;6.10;99.90
15617;DHT22;7908;51.688;7.130;2023-03-14T15:49:08;6.00;99.90
15617;DHT22;7908;51.688;7.130;2023-03-14T15:51:37;6.10;99.90
15617;DHT22;7908;51.688;7.130;2023-03-14T15:54:08;6.10;99.90
15617;DHT22;7908;51.688;7.130;2023-03-14T15:56:37;6.10;99.90
15617;DHT22;7908;51.688;7.130;2023-03-14T15:59:07;6.20;99.90
15617;DHT22;7908;51.688;7.130;2023-03-14T16:01:36;6.20;99.90
15617;DHT22;7908;51.688;7.130;2023-03-14T16:04:05;6.20;99.90
15617;DHT22;7908;51.688;7.130;2023-03-14T16:06:35;6.20;99.90
15617;DHT22;7908;51.688;7.130;2023-03-14T16:09:04;6.20;99.90
15617;DHT22;7908;51.688;7.130;2023-03-14T16:11:35;6.20;99.90
15617;DHT22;7908;51.688;7.130;2023-03-14T16:14:04;6.30;99.90
15617;DHT22;7908;51.688;7.130;2023-03-14T16:16:34;6.30;99.90
15617;DHT22;7908;51.688;7.130;2023-03-14T16:19:06;6.30;99.90
15617;DHT22;7908;51.688;7.130;2023-03-14T16:21:35;6.30;99.90
15617;DHT22;7908;51.688;7.130;2023-03-14T16:24:05;6.20;99.90
15617;DHT22;7908;51.688;7.130;2023-03-14T16:26:36;6.30;99.90
15617;DHT22;7908;51.688;7.130;2023-03-14T16:29:06;6.20;99.90
15617;DHT22;7908;51.688;7.130;2023-03-14T16:31:35;6.30;99.90
15617;DHT22;7908;51.688;7.130;2023-03-14T16:34:09;6.30;99.90
15617;DHT22;7908;51.688;7.130;2023-03-14T16:36:39;6.30;99.90
15617;DHT22;7908;51.688;7.130;2023-03-14T16:39:12;6.30;99.90